createdAt,value
2023-05-09T00:07:04.185Z,4.25
2023-05-09T00:17:15.971Z,3.85
2023-05-09T00:27:14.779Z,3.5
2023-05-09T00:37:28.975Z,4.02
2023-05-09T00:47:27.803Z,4.17
2023-05-09T00:57:36.983Z,3.79
2023-05-09T01:07:46.547Z,3.26
2023-05-09T01:17:56.211Z,3.27
2023-05-09T01:28:05.066Z,2.96
2023-05-09T01:38:13.757Z,3.44
2023-05-09T01:48:22.423Z,3.39
2023-05-09T01:58:31.270Z,3.69
2023-05-09T02:08:42.463Z,3.45
2023-05-09T02:18:42.259Z,3.5
2023-05-09T02:28:50.969Z,3.38
2023-05-09T02:38:59.728Z,4.22
2023-05-09T02:49:08.572Z,4.23
2023-05-09T02:59:16.841Z,4.05
2023-05-09T03:09:25.651Z,4.33
2023-05-09T03:19:35.487Z,3.99
2023-05-09T03:29:44.369Z,3.72
2023-05-09T03:39:53.075Z,4.99
2023-05-09T03:50:01.852Z,4.82
2023-05-09T04:00:11.836Z,4.24
2023-05-09T04:10:11.930Z,4.02
2023-05-09T04:20:10.839Z,4.02
2023-05-09T04:30:19.877Z,3.96
2023-05-09T04:40:28.206Z,3.69
2023-05-09T04:50:36.963Z,4.32
2023-05-09T05:00:45.644Z,4.06
2023-05-09T05:10:55.397Z,3.85
2023-05-09T05:21:04.226Z,4.74
2023-05-09T05:31:13.676Z,5.6
2023-05-09T05:41:22.226Z,4.56
2023-05-09T05:51:30.950Z,6
2023-05-09T06:01:40.685Z,7.66
2023-05-09T06:11:49.355Z,7.02
2023-05-09T06:21:58.126Z,5.43
2023-05-09T06:32:06.913Z,6.87
2023-05-09T06:42:15.638Z,5.2
2023-05-09T06:52:24.542Z,5.18
2023-05-09T07:02:33.251Z,4.97
2023-05-09T07:12:41.981Z,5.35
2023-05-09T07:22:50.597Z,4.85
2023-05-09T07:32:59.189Z,5.49
2023-05-09T07:43:07.804Z,6.25
2023-05-09T07:53:16.687Z,4.19
2023-05-09T08:03:25.420Z,3.65
2023-05-09T08:13:34.091Z,3.48
2023-05-09T08:23:42.905Z,3.12
2023-05-09T08:33:51.246Z,3.29
2023-05-09T08:43:59.874Z,3.54
2023-05-09T08:54:08.890Z,4.03
2023-05-09T09:04:17.621Z,3.36
2023-05-09T09:14:26.327Z,3.72
2023-05-09T09:24:35.096Z,4.07
2023-05-09T09:34:43.900Z,3.2
2023-05-09T09:44:52.755Z,2.84
2023-05-09T09:55:01.558Z,3.29
2023-05-09T10:05:10.144Z,3.15
2023-05-09T10:15:18.940Z,2.87
2023-05-09T10:25:27.580Z,2.52
2023-05-09T10:35:36.252Z,2.44
2023-05-09T10:45:45.448Z,2.8
2023-05-09T10:55:54.911Z,2.62
2023-05-09T11:06:04.115Z,2.85
2023-05-09T11:16:13.476Z,2.91
2023-05-09T11:26:22.950Z,3.39
2023-05-09T11:36:32.846Z,3.58
2023-05-09T11:46:42.506Z,3.47
2023-05-09T11:56:51.889Z,2.7
2023-05-09T12:07:04.301Z,3.24
2023-05-09T12:17:03.668Z,3.05
2023-05-09T12:27:13.029Z,2.75
2023-05-09T12:37:22.801Z,3
2023-05-09T12:47:32.217Z,2.66
2023-05-09T12:57:41.150Z,2.43
2023-05-09T13:07:50.578Z,2.65
2023-05-09T13:18:00.763Z,2.12
2023-05-09T13:28:01.342Z,2.29
2023-05-09T13:38:02.193Z,2.55
2023-05-09T13:48:01.653Z,1.99
2023-05-09T13:58:10.988Z,3.12
2023-05-09T14:08:20.460Z,2.59
2023-05-09T14:18:28.932Z,2.59
2023-05-09T14:28:38.341Z,2.12
2023-05-09T14:38:48.946Z,2.42
2023-05-09T14:48:48.999Z,2.34
2023-05-09T14:58:48.544Z,2.94
2023-05-09T15:08:58.640Z,2.85
2023-05-09T15:18:59.042Z,3.2
2023-05-09T15:28:58.403Z,3.34
2023-05-09T15:39:07.737Z,3.67
2023-05-09T15:49:17.006Z,3.75
2023-05-09T15:59:26.394Z,3.9
2023-05-09T16:09:35.582Z,3.93
2023-05-09T16:19:47.868Z,4.25
2023-05-09T16:29:47.271Z,4.42
2023-05-09T16:39:56.750Z,4.29
2023-05-09T16:50:05.992Z,5.55
2023-05-09T17:00:14.822Z,6.24
2023-05-09T17:10:23.332Z,5.26
2023-05-09T17:20:31.979Z,6.88
2023-05-09T17:30:40.576Z,8.46
2023-05-09T17:40:49.364Z,8.15
2023-05-09T17:50:57.993Z,8.8
2023-05-09T18:01:06.628Z,9.36
2023-05-09T18:11:15.328Z,9.38
2023-05-09T18:21:23.998Z,11.77
2023-05-09T18:31:32.849Z,11.67
2023-05-09T18:41:41.736Z,6.34
2023-05-09T18:51:50.408Z,5.62
2023-05-09T19:01:59.141Z,3.04
2023-05-09T19:12:21.206Z,4.46
2023-05-09T19:22:32.272Z,2.55
2023-05-09T19:32:23.744Z,3.15
2023-05-09T19:42:29.482Z,2.41
2023-05-09T19:52:32.501Z,3.42
2023-05-09T20:02:32.055Z,3.58
2023-05-09T20:12:39.754Z,3.3
2023-05-09T20:22:47.677Z,3.47
2023-05-09T20:33:06.750Z,2.96
2023-05-09T20:43:04.944Z,2.92
2023-05-09T20:53:14.281Z,2.08
2023-05-09T21:03:22.499Z,1.97
2023-05-09T21:13:30.369Z,1.9
2023-05-09T21:23:38.262Z,2.02
2023-05-09T21:33:46.203Z,1.92
2023-05-09T21:43:55.409Z,1.66
2023-05-09T21:54:03.448Z,2.1
2023-05-09T22:04:11.407Z,2.16
2023-05-09T22:14:19.248Z,2.53
2023-05-09T22:24:27.219Z,2.41
2023-05-09T22:34:35.286Z,3.04
2023-05-09T22:44:43.128Z,2.82
2023-05-09T22:54:51.888Z,2.79
2023-05-09T23:05:00.629Z,2.68
2023-05-09T23:15:09.369Z,2.47
2023-05-09T23:25:17.990Z,2.67
2023-05-09T23:35:26.728Z,3.04
2023-05-09T23:45:35.349Z,2.59
2023-05-09T23:55:44.164Z,2.9
